sensor_id;sensor_type;location;lat;lon;timestamp;P1;durP1;ratioP1;P2;durP2;ratioP2
77298;SDS011;66361;52.034;20.656;2023-07-13T00:06:04;11.65;;;9.02;;
77298;SDS011;66361;52.034;20.656;2023-07-13T00:10:08;11.60;;;8.68;;
77298;SDS011;66361;52.034;20.656;2023-07-13T00:14:11;11.73;;;8.35;;
77298;SDS011;66361;52.034;20.656;2023-07-13T00:18:16;11.70;;;9.05;;
77298;SDS011;66361;52.034;20.656;2023-07-13T00:22:19;11.55;;;8.07;;
77298;SDS011;66361;52.034;20.656;2023-07-13T00:26:23;10.50;;;7.50;;
77298;SDS011;66361;52.034;20.656;2023-07-13T00:30:26;13.30;;;8.48;;
77298;SDS011;66361;52.034;20.656;2023-07-13T00:34:31;12.82;;;8.95;;
77298;SDS011;66361;52.034;20.656;2023-07-13T00:38:34;13.05;;;8.85;;
77298;SDS011;66361;52.034;20.656;2023-07-13T00:42:38;11.10;;;9.00;;
77298;SDS011;66361;52.034;20.656;2023-07-13T00:46:41;11.05;;;8.57;;
77298;SDS011;66361;52.034;20.656;2023-07-13T00:50:46;12.20;;;8.40;;
77298;SDS011;66361;52.034;20.656;2023-07-13T00:58:57;10.15;;;8.20;;
77298;SDS011;66361;52.034;20.656;2023-07-13T01:03:02;12.18;;;8.40;;
77298;SDS011;66361;52.034;20.656;2023-07-13T01:11:38;11.95;;;8.63;;
77298;SDS011;66361;52.034;20.656;2023-07-13T01:15:43;10.10;;;7.82;;
77298;SDS011;66361;52.034;20.656;2023-07-13T01:19:47;13.18;;;9.30;;
77298;SDS011;66361;52.034;20.656;2023-07-13T01:23:52;11.52;;;9.13;;
77298;SDS011;66361;52.034;20.656;2023-07-13T01:27:58;13.30;;;8.23;;
77298;SDS011;66361;52.034;20.656;2023-07-13T01:32:01;13.02;;;9.60;;
77298;SDS011;66361;52.034;20.656;2023-07-13T01:36:05;11.48;;;8.40;;
77298;SDS011;66361;52.034;20.656;2023-07-13T01:40:10;12.55;;;8.90;;
77298;SDS011;66361;52.034;20.656;2023-07-13T01:44:14;11.48;;;8.90;;
77298;SDS011;66361;52.034;20.656;2023-07-13T01:48:17;13.32;;;8.52;;
77298;SDS011;66361;52.034;20.656;2023-07-13T01:52:21;10.82;;;8.80;;
77298;SDS011;66361;52.034;20.656;2023-07-13T01:56:25;15.90;;;9.82;;
77298;SDS011;66361;52.034;20.656;2023-07-13T02:00:29;14.93;;;10.35;;
77298;SDS011;66361;52.034;20.656;2023-07-13T02:04:32;11.93;;;9.38;;
77298;SDS011;66361;52.034;20.656;2023-07-13T02:08:36;14.82;;;9.65;;
77298;SDS011;66361;52.034;20.656;2023-07-13T02:12:42;12.10;;;9.30;;
77298;SDS011;66361;52.034;20.656;2023-07-13T02:16:44;13.93;;;9.30;;
77298;SDS011;66361;52.034;20.656;2023-07-13T02:20:47;11.40;;;9.55;;
77298;SDS011;66361;52.034;20.656;2023-07-13T02:24:51;11.80;;;9.25;;
77298;SDS011;66361;52.034;20.656;2023-07-13T02:28:55;13.73;;;9.95;;
77298;SDS011;66361;52.034;20.656;2023-07-13T02:32:59;12.23;;;9.98;;
77298;SDS011;66361;52.034;20.656;2023-07-13T02:37:02;14.73;;;10.13;;
77298;SDS011;66361;52.034;20.656;2023-07-13T02:41:06;11.65;;;9.57;;
77298;SDS011;66361;52.034;20.656;2023-07-13T02:45:13;11.20;;;8.18;;
77298;SDS011;66361;52.034;20.656;2023-07-13T02:49:16;10.95;;;8.93;;
77298;SDS011;66361;52.034;20.656;2023-07-13T02:53:19;12.90;;;8.75;;
77298;SDS011;66361;52.034;20.656;2023-07-13T02:57:23;11.02;;;9.00;;
77298;SDS011;66361;52.034;20.656;2023-07-13T03:01:27;12.75;;;8.93;;
77298;SDS011;66361;52.034;20.656;2023-07-13T03:05:30;13.73;;;9.32;;
77298;SDS011;66361;52.034;20.656;2023-07-13T03:09:34;11.35;;;9.20;;
77298;SDS011;66361;52.034;20.656;2023-07-13T03:13:37;14.60;;;10.35;;
77298;SDS011;66361;52.034;20.656;2023-07-13T03:17:47;13.02;;;8.75;;
77298;SDS011;66361;52.034;20.656;2023-07-13T03:21:51;11.07;;;9.43;;
77298;SDS011;66361;52.034;20.656;2023-07-13T03:26:04;11.30;;;8.05;;
77298;SDS011;66361;52.034;20.656;2023-07-13T03:30:10;11.90;;;8.82;;
77298;SDS011;66361;52.034;20.656;2023-07-13T03:34:14;12.60;;;9.35;;
77298;SDS011;66361;52.034;20.656;2023-07-13T03:38:18;11.63;;;8.70;;
77298;SDS011;66361;52.034;20.656;2023-07-13T03:42:21;11.75;;;9.23;;
77298;SDS011;66361;52.034;20.656;2023-07-13T03:46:24;10.43;;;8.02;;
77298;SDS011;66361;52.034;20.656;2023-07-13T03:50:29;11.38;;;8.48;;
77298;SDS011;66361;52.034;20.656;2023-07-13T03:54:32;10.73;;;8.50;;
77298;SDS011;66361;52.034;20.656;2023-07-13T03:58:36;12.15;;;8.82;;
77298;SDS011;66361;52.034;20.656;2023-07-13T04:02:41;12.25;;;8.40;;
77298;SDS011;66361;52.034;20.656;2023-07-13T04:06:45;9.82;;;8.35;;
77298;SDS011;66361;52.034;20.656;2023-07-13T04:10:48;11.00;;;8.20;;
77298;SDS011;66361;52.034;20.656;2023-07-13T04:14:51;11.27;;;8.80;;
77298;SDS011;66361;52.034;20.656;2023-07-13T04:18:56;11.38;;;8.88;;
77298;SDS011;66361;52.034;20.656;2023-07-13T04:23:03;9.93;;;8.70;;
77298;SDS011;66361;52.034;20.656;2023-07-13T04:27:06;11.18;;;8.02;;
77298;SDS011;66361;52.034;20.656;2023-07-13T04:31:09;12.45;;;8.85;;
77298;SDS011;66361;52.034;20.656;2023-07-13T04:35:12;11.82;;;9.32;;
77298;SDS011;66361;52.034;20.656;2023-07-13T04:39:17;9.63;;;8.65;;
77298;SDS011;66361;52.034;20.656;2023-07-13T04:43:21;13.35;;;8.73;;
77298;SDS011;66361;52.034;20.656;2023-07-13T04:47:24;12.40;;;9.48;;
77298;SDS011;66361;52.034;20.656;2023-07-13T04:51:28;10.68;;;8.73;;
77298;SDS011;66361;52.034;20.656;2023-07-13T04:55:35;10.95;;;9.10;;
77298;SDS011;66361;52.034;20.656;2023-07-13T04:59:39;10.18;;;8.82;;
77298;SDS011;66361;52.034;20.656;2023-07-13T05:03:42;10.68;;;9.48;;
77298;SDS011;66361;52.034;20.656;2023-07-13T05:07:45;11.25;;;9.13;;
77298;SDS011;66361;52.034;20.656;2023-07-13T05:11:50;11.18;;;9.15;;
77298;SDS011;66361;52.034;20.656;2023-07-13T05:15:57;9.27;;;8.25;;
77298;SDS011;66361;52.034;20.656;2023-07-13T05:20:03;11.10;;;8.73;;
77298;SDS011;66361;52.034;20.656;2023-07-13T05:24:07;11.60;;;9.32;;
77298;SDS011;66361;52.034;20.656;2023-07-13T05:28:26;9.85;;;8.88;;
77298;SDS011;66361;52.034;20.656;2023-07-13T05:32:30;11.50;;;9.20;;
77298;SDS011;66361;52.034;20.656;2023-07-13T05:36:33;9.75;;;8.48;;
77298;SDS011;66361;52.034;20.656;2023-07-13T05:40:37;10.20;;;8.27;;
77298;SDS011;66361;52.034;20.656;2023-07-13T05:44:41;9.25;;;8.13;;
77298;SDS011;66361;52.034;20.656;2023-07-13T05:48:44;11.63;;;8.43;;
77298;SDS011;66361;52.034;20.656;2023-07-13T05:52:47;9.20;;;7.57;;
77298;SDS011;66361;52.034;20.656;2023-07-13T05:56:50;7.90;;;6.63;;
77298;SDS011;66361;52.034;20.656;2023-07-13T06:01:00;8.45;;;7.15;;
77298;SDS011;66361;52.034;20.656;2023-07-13T06:05:05;7.38;;;6.63;;
77298;SDS011;66361;52.034;20.656;2023-07-13T06:09:08;8.32;;;7.53;;
77298;SDS011;66361;52.034;20.656;2023-07-13T06:13:12;7.75;;;6.95;;
77298;SDS011;66361;52.034;20.656;2023-07-13T06:17:17;10.27;;;7.07;;
77298;SDS011;66361;52.034;20.656;2023-07-13T06:21:21;8.20;;;7.20;;
77298;SDS011;66361;52.034;20.656;2023-07-13T06:25:25;7.53;;;6.80;;
77298;SDS011;66361;52.034;20.656;2023-07-13T06:29:32;10.70;;;7.68;;
77298;SDS011;66361;52.034;20.656;2023-07-13T06:33:39;7.93;;;7.13;;
77298;SDS011;66361;52.034;20.656;2023-07-13T06:37:43;11.40;;;9.85;;
77298;SDS011;66361;52.034;20.656;2023-07-13T06:41:46;10.57;;;9.48;;
77298;SDS011;66361;52.034;20.656;2023-07-13T06:45:54;9.50;;;8.02;;
77298;SDS011;66361;52.034;20.656;2023-07-13T06:50:00;11.57;;;9.13;;
77298;SDS011;66361;52.034;20.656;2023-07-13T06:54:03;10.10;;;9.13;;
77298;SDS011;66361;52.034;20.656;2023-07-13T06:58:07;9.95;;;8.50;;
77298;SDS011;66361;52.034;20.656;2023-07-13T07:02:10;8.98;;;8.07;;
77298;SDS011;66361;52.034;20.656;2023-07-13T07:06:21;9.48;;;8.40;;
77298;SDS011;66361;52.034;20.656;2023-07-13T07:10:25;8.32;;;7.45;;
77298;SDS011;66361;52.034;20.656;2023-07-13T07:14:28;8.70;;;7.22;;
77298;SDS011;66361;52.034;20.656;2023-07-13T07:18:31;12.27;;;8.05;;
77298;SDS011;66361;52.034;20.656;2023-07-13T07:22:36;9.20;;;8.00;;
77298;SDS011;66361;52.034;20.656;2023-07-13T07:26:39;8.45;;;7.55;;
77298;SDS011;66361;52.034;20.656;2023-07-13T07:30:45;9.45;;;8.40;;
77298;SDS011;66361;52.034;20.656;2023-07-13T07:34:57;9.15;;;7.78;;
77298;SDS011;66361;52.034;20.656;2023-07-13T07:39:02;8.15;;;7.35;;
77298;SDS011;66361;52.034;20.656;2023-07-13T07:43:06;8.57;;;7.45;;
77298;SDS011;66361;52.034;20.656;2023-07-13T07:47:13;9.02;;;6.80;;
77298;SDS011;66361;52.034;20.656;2023-07-13T07:51:18;8.68;;;7.88;;
77298;SDS011;66361;52.034;20.656;2023-07-13T07:55:24;8.75;;;7.53;;
77298;SDS011;66361;52.034;20.656;2023-07-13T07:59:36;7.95;;;7.15;;
77298;SDS011;66361;52.034;20.656;2023-07-13T08:03:42;9.23;;;7.78;;
77298;SDS011;66361;52.034;20.656;2023-07-13T08:07:51;9.43;;;8.45;;
77298;SDS011;66361;52.034;20.656;2023-07-13T08:12:00;10.07;;;9.07;;
77298;SDS011;66361;52.034;20.656;2023-07-13T08:16:06;8.95;;;8.05;;
77298;SDS011;66361;52.034;20.656;2023-07-13T08:20:09;9.50;;;8.05;;
77298;SDS011;66361;52.034;20.656;2023-07-13T08:24:13;7.55;;;6.85;;
77298;SDS011;66361;52.034;20.656;2023-07-13T08:28:25;8.93;;;8.02;;
77298;SDS011;66361;52.034;20.656;2023-07-13T08:32:28;9.00;;;8.10;;
77298;SDS011;66361;52.034;20.656;2023-07-13T08:36:31;10.07;;;8.23;;
77298;SDS011;66361;52.034;20.656;2023-07-13T08:40:34;9.43;;;8.43;;
77298;SDS011;66361;52.034;20.656;2023-07-13T08:44:40;10.98;;;7.82;;
77298;SDS011;66361;52.034;20.656;2023-07-13T08:49:09;11.05;;;9.18;;
77298;SDS011;66361;52.034;20.656;2023-07-13T08:53:16;9.55;;;8.40;;
77298;SDS011;66361;52.034;20.656;2023-07-13T08:57:21;8.85;;;7.95;;
77298;SDS011;66361;52.034;20.656;2023-07-13T09:01:33;10.52;;;8.35;;
77298;SDS011;66361;52.034;20.656;2023-07-13T09:05:51;8.63;;;7.82;;
77298;SDS011;66361;52.034;20.656;2023-07-13T09:12:14;8.15;;;7.28;;
77298;SDS011;66361;52.034;20.656;2023-07-13T09:16:27;8.10;;;7.30;;
77298;SDS011;66361;52.034;20.656;2023-07-13T09:20:31;8.48;;;7.57;;
77298;SDS011;66361;52.034;20.656;2023-07-13T09:24:38;8.32;;;7.50;;
77298;SDS011;66361;52.034;20.656;2023-07-13T09:28:53;8.70;;;7.28;;
77298;SDS011;66361;52.034;20.656;2023-07-13T09:33:01;10.73;;;7.78;;
77298;SDS011;66361;52.034;20.656;2023-07-13T09:37:06;9.15;;;7.70;;
77298;SDS011;66361;52.034;20.656;2023-07-13T09:41:14;8.10;;;7.30;;
77298;SDS011;66361;52.034;20.656;2023-07-13T09:45:28;8.40;;;7.45;;
77298;SDS011;66361;52.034;20.656;2023-07-13T09:49:34;10.52;;;8.07;;
77298;SDS011;66361;52.034;20.656;2023-07-13T09:53:39;8.15;;;7.03;;
77298;SDS011;66361;52.034;20.656;2023-07-13T09:57:46;9.98;;;7.72;;
77298;SDS011;66361;52.034;20.656;2023-07-13T10:01:53;13.05;;;8.15;;
77298;SDS011;66361;52.034;20.656;2023-07-13T10:05:58;8.60;;;7.70;;
77298;SDS011;66361;52.034;20.656;2023-07-13T10:10:13;8.60;;;7.68;;
77298;SDS011;66361;52.034;20.656;2023-07-13T10:14:20;8.27;;;7.45;;
77298;SDS011;66361;52.034;20.656;2023-07-13T10:18:28;10.35;;;8.77;;
77298;SDS011;66361;52.034;20.656;2023-07-13T10:22:36;8.77;;;7.43;;
77298;SDS011;66361;52.034;20.656;2023-07-13T10:26:50;8.60;;;7.10;;
77298;SDS011;66361;52.034;20.656;2023-07-13T10:30:59;9.32;;;8.30;;
77298;SDS011;66361;52.034;20.656;2023-07-13T10:35:09;8.25;;;7.07;;
77298;SDS011;66361;52.034;20.656;2023-07-13T10:39:16;9.60;;;8.05;;
77298;SDS011;66361;52.034;20.656;2023-07-13T10:43:23;7.50;;;6.80;;
77298;SDS011;66361;52.034;20.656;2023-07-13T10:47:29;7.55;;;6.80;;
77298;SDS011;66361;52.034;20.656;2023-07-13T10:51:34;7.85;;;6.80;;
77298;SDS011;66361;52.034;20.656;2023-07-13T10:55:40;4.80;;;4.28;;
77298;SDS011;66361;52.034;20.656;2023-07-13T11:00:14;6.32;;;3.92;;
77298;SDS011;66361;52.034;20.656;2023-07-13T11:04:20;5.10;;;4.25;;
77298;SDS011;66361;52.034;20.656;2023-07-13T11:08:33;5.07;;;4.30;;
77298;SDS011;66361;52.034;20.656;2023-07-13T11:12:52;4.97;;;3.72;;
77298;SDS011;66361;52.034;20.656;2023-07-13T11:16:56;4.30;;;3.90;;
77298;SDS011;66361;52.034;20.656;2023-07-13T11:21:12;4.85;;;3.60;;
77298;SDS011;66361;52.034;20.656;2023-07-13T11:25:33;4.68;;;3.80;;
77298;SDS011;66361;52.034;20.656;2023-07-13T11:29:39;5.63;;;4.22;;
77298;SDS011;66361;52.034;20.656;2023-07-13T11:33:48;6.47;;;4.40;;
77298;SDS011;66361;52.034;20.656;2023-07-13T11:37:59;9.07;;;5.00;;
77298;SDS011;66361;52.034;20.656;2023-07-13T11:42:05;5.32;;;4.65;;
77298;SDS011;66361;52.034;20.656;2023-07-13T11:46:14;5.55;;;4.95;;
77298;SDS011;66361;52.034;20.656;2023-07-13T11:50:19;10.50;;;9.38;;
77298;SDS011;66361;52.034;20.656;2023-07-13T11:54:25;6.43;;;5.47;;
77298;SDS011;66361;52.034;20.656;2023-07-13T11:58:32;7.53;;;5.40;;
77298;SDS011;66361;52.034;20.656;2023-07-13T12:02:37;6.22;;;4.85;;
77298;SDS011;66361;52.034;20.656;2023-07-13T12:06:45;4.70;;;4.20;;
77298;SDS011;66361;52.034;20.656;2023-07-13T12:10:47;4.93;;;4.43;;
77298;SDS011;66361;52.034;20.656;2023-07-13T12:15:00;6.13;;;4.30;;
77298;SDS011;66361;52.034;20.656;2023-07-13T12:19:03;6.85;;;4.75;;
77298;SDS011;66361;52.034;20.656;2023-07-13T12:23:14;5.90;;;4.93;;
77298;SDS011;66361;52.034;20.656;2023-07-13T12:27:27;7.80;;;6.45;;
77298;SDS011;66361;52.034;20.656;2023-07-13T12:31:34;9.43;;;8.10;;
77298;SDS011;66361;52.034;20.656;2023-07-13T12:35:40;5.72;;;4.53;;
77298;SDS011;66361;52.034;20.656;2023-07-13T12:39:46;8.32;;;7.32;;
77298;SDS011;66361;52.034;20.656;2023-07-13T12:43:52;15.32;;;13.30;;
77298;SDS011;66361;52.034;20.656;2023-07-13T12:47:56;7.63;;;5.90;;
77298;SDS011;66361;52.034;20.656;2023-07-13T12:52:03;7.32;;;5.32;;
77298;SDS011;66361;52.034;20.656;2023-07-13T12:56:18;6.40;;;5.32;;
77298;SDS011;66361;52.034;20.656;2023-07-13T13:00:26;7.72;;;5.65;;
77298;SDS011;66361;52.034;20.656;2023-07-13T13:04:35;7.88;;;6.03;;
77298;SDS011;66361;52.034;20.656;2023-07-13T13:08:45;9.23;;;6.38;;
77298;SDS011;66361;52.034;20.656;2023-07-13T13:12:49;7.60;;;6.22;;
77298;SDS011;66361;52.034;20.656;2023-07-13T13:16:53;7.75;;;6.97;;
77298;SDS011;66361;52.034;20.656;2023-07-13T13:20:58;9.88;;;6.50;;
77298;SDS011;66361;52.034;20.656;2023-07-13T13:25:02;6.60;;;5.90;;
77298;SDS011;66361;52.034;20.656;2023-07-13T13:29:14;6.88;;;5.78;;
77298;SDS011;66361;52.034;20.656;2023-07-13T13:33:20;8.10;;;5.75;;
77298;SDS011;66361;52.034;20.656;2023-07-13T13:37:26;7.60;;;6.78;;
77298;SDS011;66361;52.034;20.656;2023-07-13T13:41:28;7.22;;;5.57;;
77298;SDS011;66361;52.034;20.656;2023-07-13T13:45:32;7.88;;;5.70;;
77298;SDS011;66361;52.034;20.656;2023-07-13T13:49:35;6.75;;;5.55;;
77298;SDS011;66361;52.034;20.656;2023-07-13T13:53:40;6.53;;;5.80;;
77298;SDS011;66361;52.034;20.656;2023-07-13T13:57:43;11.65;;;5.80;;
77298;SDS011;66361;52.034;20.656;2023-07-13T14:01:47;6.38;;;5.47;;
77298;SDS011;66361;52.034;20.656;2023-07-13T14:05:51;7.13;;;5.78;;
77298;SDS011;66361;52.034;20.656;2023-07-13T14:09:56;7.78;;;6.32;;
77298;SDS011;66361;52.034;20.656;2023-07-13T14:14:01;6.30;;;5.70;;
77298;SDS011;66361;52.034;20.656;2023-07-13T14:18:05;7.22;;;5.95;;
77298;SDS011;66361;52.034;20.656;2023-07-13T14:22:11;6.72;;;5.95;;
77298;SDS011;66361;52.034;20.656;2023-07-13T14:26:16;7.07;;;5.70;;
77298;SDS011;66361;52.034;20.656;2023-07-13T14:30:21;6.82;;;6.05;;
77298;SDS011;66361;52.034;20.656;2023-07-13T14:34:25;6.95;;;6.18;;
77298;SDS011;66361;52.034;20.656;2023-07-13T14:38:28;6.70;;;5.75;;
77298;SDS011;66361;52.034;20.656;2023-07-13T14:42:32;8.85;;;5.68;;
77298;SDS011;66361;52.034;20.656;2023-07-13T14:46:36;7.28;;;5.65;;
77298;SDS011;66361;52.034;20.656;2023-07-13T14:50:42;6.63;;;5.68;;
77298;SDS011;66361;52.034;20.656;2023-07-13T14:54:48;8.23;;;6.35;;
77298;SDS011;66361;52.034;20.656;2023-07-13T14:58:53;6.47;;;5.78;;
77298;SDS011;66361;52.034;20.656;2023-07-13T15:02:57;6.80;;;6.07;;
77298;SDS011;66361;52.034;20.656;2023-07-13T15:07:03;6.47;;;5.80;;
77298;SDS011;66361;52.034;20.656;2023-07-13T15:11:06;7.32;;;5.53;;
77298;SDS011;66361;52.034;20.656;2023-07-13T15:15:11;6.63;;;5.30;;
77298;SDS011;66361;52.034;20.656;2023-07-13T15:19:19;6.18;;;5.57;;
77298;SDS011;66361;52.034;20.656;2023-07-13T15:23:24;7.80;;;5.90;;
77298;SDS011;66361;52.034;20.656;2023-07-13T15:27:31;6.22;;;5.60;;
77298;SDS011;66361;52.034;20.656;2023-07-13T15:31:35;6.25;;;5.65;;
77298;SDS011;66361;52.034;20.656;2023-07-13T15:35:40;8.05;;;6.05;;
77298;SDS011;66361;52.034;20.656;2023-07-13T15:39:43;6.75;;;6.15;;
77298;SDS011;66361;52.034;20.656;2023-07-13T15:43:47;6.90;;;6.22;;
77298;SDS011;66361;52.034;20.656;2023-07-13T15:47:53;6.47;;;5.78;;
77298;SDS011;66361;52.034;20.656;2023-07-13T15:51:57;7.97;;;5.88;;
77298;SDS011;66361;52.034;20.656;2023-07-13T15:56:01;5.32;;;4.82;;
77298;SDS011;66361;52.034;20.656;2023-07-13T16:00:18;5.85;;;5.25;;
77298;SDS011;66361;52.034;20.656;2023-07-13T16:04:24;5.97;;;5.03;;
77298;SDS011;66361;52.034;20.656;2023-07-13T16:08:29;7.28;;;6.47;;
77298;SDS011;66361;52.034;20.656;2023-07-13T16:12:34;6.88;;;6.03;;
77298;SDS011;66361;52.034;20.656;2023-07-13T16:16:41;6.43;;;5.72;;
77298;SDS011;66361;52.034;20.656;2023-07-13T16:20:48;6.55;;;5.82;;
77298;SDS011;66361;52.034;20.656;2023-07-13T16:24:53;6.30;;;5.40;;
77298;SDS011;66361;52.034;20.656;2023-07-13T16:28:57;6.75;;;6.05;;
77298;SDS011;66361;52.034;20.656;2023-07-13T16:33:05;7.30;;;5.97;;
77298;SDS011;66361;52.034;20.656;2023-07-13T16:37:14;6.18;;;4.97;;
77298;SDS011;66361;52.034;20.656;2023-07-13T16:41:19;5.97;;;4.85;;
77298;SDS011;66361;52.034;20.656;2023-07-13T16:45:23;5.35;;;4.75;;
77298;SDS011;66361;52.034;20.656;2023-07-13T16:49:28;5.80;;;5.15;;
77298;SDS011;66361;52.034;20.656;2023-07-13T16:53:33;6.97;;;5.80;;
77298;SDS011;66361;52.034;20.656;2023-07-13T16:57:37;5.45;;;4.70;;
77298;SDS011;66361;52.034;20.656;2023-07-13T17:01:42;5.90;;;5.30;;
77298;SDS011;66361;52.034;20.656;2023-07-13T17:05:47;6.40;;;5.40;;
77298;SDS011;66361;52.034;20.656;2023-07-13T17:09:52;6.65;;;4.80;;
77298;SDS011;66361;52.034;20.656;2023-07-13T17:13:56;6.90;;;5.40;;
77298;SDS011;66361;52.034;20.656;2023-07-13T17:17:59;7.30;;;5.53;;
77298;SDS011;66361;52.034;20.656;2023-07-13T17:22:10;7.78;;;5.15;;
77298;SDS011;66361;52.034;20.656;2023-07-13T17:26:19;5.78;;;4.63;;
77298;SDS011;66361;52.034;20.656;2023-07-13T17:30:22;6.18;;;4.97;;
77298;SDS011;66361;52.034;20.656;2023-07-13T17:34:25;5.28;;;4.78;;
77298;SDS011;66361;52.034;20.656;2023-07-13T17:38:30;5.68;;;4.75;;
77298;SDS011;66361;52.034;20.656;2023-07-13T17:42:37;6.63;;;5.00;;
77298;SDS011;66361;52.034;20.656;2023-07-13T17:46:40;7.18;;;5.03;;
77298;SDS011;66361;52.034;20.656;2023-07-13T17:50:44;6.10;;;4.63;;
77298;SDS011;66361;52.034;20.656;2023-07-13T17:54:49;5.22;;;4.72;;
77298;SDS011;66361;52.034;20.656;2023-07-13T17:58:54;5.75;;;4.57;;
77298;SDS011;66361;52.034;20.656;2023-07-13T18:02:58;4.80;;;4.30;;
77298;SDS011;66361;52.034;20.656;2023-07-13T18:07:07;6.32;;;4.85;;
77298;SDS011;66361;52.034;20.656;2023-07-13T18:11:18;5.65;;;5.00;;
77298;SDS011;66361;52.034;20.656;2023-07-13T18:15:23;6.93;;;5.13;;
77298;SDS011;66361;52.034;20.656;2023-07-13T18:19:30;5.93;;;5.32;;
77298;SDS011;66361;52.034;20.656;2023-07-13T18:23:36;6.25;;;5.35;;
77298;SDS011;66361;52.034;20.656;2023-07-13T18:27:39;6.15;;;5.55;;
77298;SDS011;66361;52.034;20.656;2023-07-13T18:31:43;6.90;;;5.85;;
77298;SDS011;66361;52.034;20.656;2023-07-13T18:35:47;6.78;;;5.80;;
77298;SDS011;66361;52.034;20.656;2023-07-13T18:39:51;6.78;;;6.07;;
77298;SDS011;66361;52.034;20.656;2023-07-13T18:43:55;6.50;;;5.90;;
77298;SDS011;66361;52.034;20.656;2023-07-13T18:47:59;6.90;;;6.25;;
77298;SDS011;66361;52.034;20.656;2023-07-13T18:52:04;7.85;;;7.03;;
77298;SDS011;66361;52.034;20.656;2023-07-13T18:56:16;9.88;;;6.40;;
77298;SDS011;66361;52.034;20.656;2023-07-13T19:00:22;8.27;;;7.30;;
77298;SDS011;66361;52.034;20.656;2023-07-13T19:04:29;8.00;;;7.20;;
77298;SDS011;66361;52.034;20.656;2023-07-13T19:08:33;9.48;;;6.85;;
77298;SDS011;66361;52.034;20.656;2023-07-13T19:12:50;10.52;;;7.20;;
77298;SDS011;66361;52.034;20.656;2023-07-13T19:16:55;8.75;;;7.25;;
77298;SDS011;66361;52.034;20.656;2023-07-13T19:21:00;9.95;;;8.70;;
77298;SDS011;66361;52.034;20.656;2023-07-13T19:25:10;10.43;;;8.95;;
77298;SDS011;66361;52.034;20.656;2023-07-13T19:29:15;11.55;;;10.25;;
77298;SDS011;66361;52.034;20.656;2023-07-13T19:33:20;11.00;;;9.27;;
77298;SDS011;66361;52.034;20.656;2023-07-13T19:37:25;11.45;;;10.18;;
77298;SDS011;66361;52.034;20.656;2023-07-13T19:41:28;12.50;;;10.43;;
77298;SDS011;66361;52.034;20.656;2023-07-13T19:45:34;13.40;;;10.57;;
77298;SDS011;66361;52.034;20.656;2023-07-13T19:49:39;13.82;;;10.65;;
77298;SDS011;66361;52.034;20.656;2023-07-13T19:53:43;11.70;;;10.02;;
77298;SDS011;66361;52.034;20.656;2023-07-13T19:57:47;12.35;;;9.55;;
77298;SDS011;66361;52.034;20.656;2023-07-13T20:01:51;15.07;;;9.88;;
77298;SDS011;66361;52.034;20.656;2023-07-13T20:05:54;14.15;;;9.60;;
77298;SDS011;66361;52.034;20.656;2023-07-13T20:10:00;12.57;;;9.98;;
77298;SDS011;66361;52.034;20.656;2023-07-13T20:14:04;11.57;;;10.23;;
77298;SDS011;66361;52.034;20.656;2023-07-13T20:18:18;12.20;;;10.95;;
77298;SDS011;66361;52.034;20.656;2023-07-13T20:22:21;12.57;;;10.20;;
77298;SDS011;66361;52.034;20.656;2023-07-13T20:26:27;12.27;;;10.95;;
77298;SDS011;66361;52.034;20.656;2023-07-13T20:30:30;12.55;;;9.98;;
77298;SDS011;66361;52.034;20.656;2023-07-13T20:34:35;13.07;;;10.85;;
77298;SDS011;66361;52.034;20.656;2023-07-13T20:38:42;14.95;;;9.38;;
77298;SDS011;66361;52.034;20.656;2023-07-13T20:42:46;11.18;;;9.98;;
77298;SDS011;66361;52.034;20.656;2023-07-13T20:46:49;16.02;;;10.35;;
77298;SDS011;66361;52.034;20.656;2023-07-13T20:50:53;12.95;;;10.05;;
77298;SDS011;66361;52.034;20.656;2023-07-13T20:54:58;10.30;;;8.98;;
77298;SDS011;66361;52.034;20.656;2023-07-13T20:59:04;12.15;;;9.63;;
77298;SDS011;66361;52.034;20.656;2023-07-13T21:03:10;12.35;;;8.93;;
77298;SDS011;66361;52.034;20.656;2023-07-13T21:07:18;14.13;;;9.98;;
77298;SDS011;66361;52.034;20.656;2023-07-13T21:11:22;12.82;;;10.75;;
77298;SDS011;66361;52.034;20.656;2023-07-13T21:15:28;12.10;;;10.90;;
77298;SDS011;66361;52.034;20.656;2023-07-13T21:19:34;11.27;;;9.52;;
77298;SDS011;66361;52.034;20.656;2023-07-13T21:23:37;12.75;;;10.23;;
77298;SDS011;66361;52.034;20.656;2023-07-13T21:27:41;13.63;;;9.60;;
77298;SDS011;66361;52.034;20.656;2023-07-13T21:31:45;13.63;;;10.20;;
77298;SDS011;66361;52.034;20.656;2023-07-13T21:35:49;13.73;;;10.82;;
77298;SDS011;66361;52.034;20.656;2023-07-13T21:39:53;12.35;;;10.57;;
77298;SDS011;66361;52.034;20.656;2023-07-13T21:43:56;12.57;;;10.10;;
77298;SDS011;66361;52.034;20.656;2023-07-13T21:48:01;12.23;;;10.60;;
77298;SDS011;66361;52.034;20.656;2023-07-13T21:52:09;14.57;;;11.68;;
77298;SDS011;66361;52.034;20.656;2023-07-13T21:56:17;11.88;;;10.75;;
77298;SDS011;66361;52.034;20.656;2023-07-13T22:00:24;13.95;;;10.73;;
77298;SDS011;66361;52.034;20.656;2023-07-13T22:04:29;14.57;;;11.50;;
77298;SDS011;66361;52.034;20.656;2023-07-13T22:08:35;14.60;;;12.32;;
77298;SDS011;66361;52.034;20.656;2023-07-13T22:12:39;15.48;;;12.95;;
77298;SDS011;66361;52.034;20.656;2023-07-13T22:16:43;17.63;;;12.43;;
77298;SDS011;66361;52.034;20.656;2023-07-13T22:20:50;14.60;;;12.55;;
77298;SDS011;66361;52.034;20.656;2023-07-13T22:24:54;20.20;;;12.98;;
77298;SDS011;66361;52.034;20.656;2023-07-13T22:28:58;18.75;;;13.07;;
77298;SDS011;66361;52.034;20.656;2023-07-13T22:33:07;17.98;;;13.10;;
77298;SDS011;66361;52.034;20.656;2023-07-13T22:37:14;20.52;;;13.90;;
77298;SDS011;66361;52.034;20.656;2023-07-13T22:41:19;17.13;;;13.38;;
77298;SDS011;66361;52.034;20.656;2023-07-13T22:45:23;17.92;;;13.40;;
77298;SDS011;66361;52.034;20.656;2023-07-13T22:49:27;18.95;;;14.82;;
77298;SDS011;66361;52.034;20.656;2023-07-13T22:53:35;23.23;;;16.27;;
77298;SDS011;66361;52.034;20.656;2023-07-13T22:57:43;35.03;;;14.95;;
77298;SDS011;66361;52.034;20.656;2023-07-13T23:01:50;20.98;;;15.25;;
77298;SDS011;66361;52.034;20.656;2023-07-13T23:05:54;20.90;;;14.85;;
77298;SDS011;66361;52.034;20.656;2023-07-13T23:10:04;20.20;;;15.18;;
77298;SDS011;66361;52.034;20.656;2023-07-13T23:14:14;20.35;;;14.68;;
77298;SDS011;66361;52.034;20.656;2023-07-13T23:18:18;27.30;;;14.68;;
77298;SDS011;66361;52.034;20.656;2023-07-13T23:22:23;19.55;;;14.13;;
77298;SDS011;66361;52.034;20.656;2023-07-13T23:26:30;16.52;;;13.05;;
